createdAt,value
2019-02-12T00:00:07.234Z,1.50
2019-02-12T00:01:07.379Z,2.10
2019-02-12T00:02:07.526Z,2.20
2019-02-12T00:03:07.670Z,1.40
2019-02-12T00:04:07.815Z,1.70
2019-02-12T00:05:07.957Z,1.10
2019-02-12T00:06:08.103Z,1.00
2019-02-12T00:07:08.250Z,2.40
2019-02-12T00:08:08.395Z,4.90
2019-02-12T00:09:08.539Z,1.60
2019-02-12T00:10:08.684Z,0.90
2019-02-12T00:11:08.832Z,1.00
2019-02-12T00:12:08.975Z,1.10
2019-02-12T00:13:09.121Z,1.00
2019-02-12T00:14:09.268Z,1.60
2019-02-12T00:15:09.410Z,1.00
2019-02-12T00:16:09.555Z,1.40
2019-02-12T00:17:09.700Z,8.60
2019-02-12T00:18:09.844Z,1.20
2019-02-12T00:19:09.988Z,1.30
2019-02-12T00:20:10.135Z,2.00
2019-02-12T00:21:10.276Z,1.10
2019-02-12T00:22:10.422Z,1.10
2019-02-12T00:23:10.566Z,1.30
2019-02-12T00:24:10.706Z,3.10
2019-02-12T00:25:10.851Z,1.10
2019-02-12T00:26:10.995Z,1.20
2019-02-12T00:27:11.143Z,4.30
2019-02-12T00:28:11.285Z,1.20
2019-02-12T00:29:11.431Z,1.10
2019-02-12T00:30:11.583Z,1.00
2019-02-12T00:31:11.718Z,1.20
2019-02-12T00:32:11.903Z,1.40
2019-02-12T00:33:12.009Z,1.30
2019-02-12T00:34:12.154Z,0.90
2019-02-12T00:35:12.298Z,1.20
2019-02-12T00:36:12.435Z,1.00
2019-02-12T00:37:12.597Z,1.00
2019-02-12T00:38:12.738Z,1.00
2019-02-12T00:39:12.885Z,1.00
2019-02-12T00:40:13.029Z,3.60
2019-02-12T00:41:13.174Z,1.00
2019-02-12T00:42:13.319Z,3.50
2019-02-12T00:43:13.465Z,1.20
2019-02-12T00:44:13.611Z,1.20
2019-02-12T00:45:13.754Z,1.00
2019-02-12T00:46:13.898Z,1.00
2019-02-12T00:47:14.045Z,1.00
2019-02-12T00:48:14.187Z,1.00
2019-02-12T00:49:14.333Z,1.00
2019-02-12T00:50:14.480Z,1.20
2019-02-12T00:51:17.782Z,1.20
2019-02-12T00:52:14.766Z,1.10
2019-02-12T00:53:14.911Z,1.10
2019-02-12T00:54:15.057Z,1.20
2019-02-12T00:55:15.203Z,1.00
2019-02-12T00:56:15.345Z,1.20
2019-02-12T00:57:15.491Z,1.00
2019-02-12T00:58:15.637Z,1.00
2019-02-12T00:59:15.780Z,1.10
2019-02-12T01:00:15.924Z,0.90
2019-02-12T01:01:16.078Z,1.10
2019-02-12T01:02:16.213Z,1.00
2019-02-12T01:03:16.357Z,1.20
2019-02-12T01:04:16.502Z,1.00
2019-02-12T01:05:16.647Z,1.00
2019-02-12T01:06:16.795Z,0.90
2019-02-12T01:07:16.937Z,1.10
2019-02-12T01:08:17.086Z,1.00
2019-02-12T01:09:17.228Z,1.00
2019-02-12T01:10:17.374Z,0.90
2019-02-12T01:11:17.520Z,0.90
2019-02-12T01:12:17.665Z,1.00
2019-02-12T01:13:17.810Z,2.20
2019-02-12T01:14:17.956Z,2.30
2019-02-12T01:15:18.102Z,2.00
2019-02-12T01:16:18.258Z,1.10
2019-02-12T01:17:18.394Z,1.00
2019-02-12T01:18:18.537Z,1.00
2019-02-12T01:19:18.683Z,1.20
2019-02-12T01:20:18.827Z,3.20
2019-02-12T01:21:26.015Z,1.20
2019-02-12T01:22:19.171Z,1.10
2019-02-12T01:23:19.266Z,0.90
2019-02-12T01:24:19.410Z,1.20
2019-02-12T01:25:19.556Z,1.00
2019-02-12T01:26:20.293Z,0.90
2019-02-12T01:27:19.850Z,1.00
2019-02-12T01:28:19.996Z,1.40
2019-02-12T01:29:20.142Z,1.50
2019-02-12T01:30:20.289Z,1.10
2019-02-12T01:31:20.438Z,1.40
2019-02-12T01:32:20.576Z,0.90
2019-02-12T01:33:20.734Z,1.10
2019-02-12T01:34:20.867Z,2.50
2019-02-12T01:35:21.015Z,1.50
2019-02-12T01:36:21.158Z,1.20
2019-02-12T01:37:21.301Z,1.00
2019-02-12T01:38:21.446Z,0.90
2019-02-12T01:39:21.591Z,1.20
2019-02-12T01:40:21.736Z,1.00
2019-02-12T01:41:21.880Z,0.90
2019-02-12T01:42:22.027Z,1.40
2019-02-12T01:43:22.173Z,1.00
2019-02-12T01:44:22.319Z,1.30
2019-02-12T01:45:22.462Z,1.10
2019-02-12T01:46:22.612Z,0.90
2019-02-12T01:47:22.754Z,4.70
2019-02-12T01:48:22.900Z,1.10
2019-02-12T01:49:23.050Z,1.00
2019-02-12T01:50:23.191Z,1.30
2019-02-12T01:51:23.332Z,4.80
2019-02-12T01:52:23.475Z,1.00
2019-02-12T01:53:23.622Z,1.00
2019-02-12T01:54:23.782Z,1.00
2019-02-12T01:55:23.917Z,2.40
2019-02-12T01:56:24.060Z,1.60
2019-02-12T01:57:24.204Z,1.00
2019-02-12T01:58:24.347Z,1.50
2019-02-12T01:59:24.493Z,1.20
2019-02-12T02:00:24.645Z,1.70
2019-02-12T02:01:24.780Z,1.20
2019-02-12T02:02:24.922Z,1.10
2019-02-12T02:03:25.068Z,3.30
2019-02-12T02:04:25.233Z,1.10
2019-02-12T02:05:25.356Z,1.00
2019-02-12T02:06:25.502Z,1.10
2019-02-12T02:07:25.647Z,1.80
2019-02-12T02:08:25.794Z,1.00
2019-02-12T02:09:25.938Z,1.30
2019-02-12T02:10:26.089Z,0.90
2019-02-12T02:11:26.228Z,1.20
2019-02-12T02:12:26.372Z,1.40
2019-02-12T02:13:26.516Z,1.20
2019-02-12T02:14:26.661Z,1.00
2019-02-12T02:15:26.804Z,0.90
2019-02-12T02:16:26.949Z,1.30
2019-02-12T02:17:27.093Z,2.30
2019-02-12T02:18:27.236Z,0.90
2019-02-12T02:19:27.382Z,1.10
2019-02-12T02:20:27.528Z,1.80
2019-02-12T02:21:27.669Z,1.00
2019-02-12T02:22:27.815Z,2.00
2019-02-12T02:23:27.964Z,0.90
2019-02-12T02:24:28.109Z,1.20
2019-02-12T02:25:28.249Z,1.10
2019-02-12T02:26:28.392Z,1.00
2019-02-12T02:27:28.539Z,1.30
2019-02-12T02:28:28.682Z,3.20
2019-02-12T02:29:28.827Z,1.40
2019-02-12T02:30:28.975Z,1.00
2019-02-12T02:31:29.117Z,1.00
2019-02-12T02:32:29.265Z,1.90
2019-02-12T02:33:29.406Z,2.50
2019-02-12T02:34:29.553Z,1.20
2019-02-12T02:35:29.696Z,1.00
2019-02-12T02:36:29.844Z,1.20
2019-02-12T02:37:30.000Z,1.10
2019-02-12T02:38:30.130Z,1.10
2019-02-12T02:39:30.276Z,1.00
2019-02-12T02:40:30.424Z,4.60
2019-02-12T02:41:30.567Z,1.20
2019-02-12T02:42:30.715Z,1.10
2019-02-12T02:43:30.858Z,1.10
2019-02-12T02:44:31.005Z,1.20
2019-02-12T02:45:31.148Z,1.00
2019-02-12T02:46:31.293Z,1.00
2019-02-12T02:47:31.437Z,1.10
2019-02-12T02:48:31.583Z,1.50
2019-02-12T02:49:31.730Z,1.30
2019-02-12T02:50:31.883Z,5.50
2019-02-12T02:51:32.019Z,1.10
2019-02-12T02:52:32.165Z,1.20
2019-02-12T02:53:32.309Z,1.70
2019-02-12T02:54:32.462Z,1.00
2019-02-12T02:55:32.627Z,1.70
2019-02-12T02:56:32.741Z,1.10
2019-02-12T02:57:32.887Z,1.60
2019-02-12T02:58:33.034Z,1.20
2019-02-12T02:59:33.176Z,1.00
2019-02-12T03:00:33.322Z,1.20
2019-02-12T03:01:33.470Z,1.60
2019-02-12T03:02:33.613Z,4.80
2019-02-12T03:03:33.758Z,1.00
2019-02-12T03:04:33.904Z,1.00
2019-02-12T03:05:34.051Z,1.00
2019-02-12T03:06:34.196Z,1.20
2019-02-12T03:07:34.341Z,1.00
2019-02-12T03:08:34.486Z,2.20
2019-02-12T03:09:34.636Z,0.90
2019-02-12T03:10:34.774Z,1.00
2019-02-12T03:11:34.918Z,1.30
2019-02-12T03:12:35.065Z,0.90
2019-02-12T03:13:35.211Z,1.00
2019-02-12T03:14:35.356Z,1.00
2019-02-12T03:15:35.497Z,2.10
2019-02-12T03:16:35.644Z,1.10
2019-02-12T03:17:35.797Z,1.50
2019-02-12T03:18:35.931Z,1.20
2019-02-12T03:19:36.076Z,1.00
2019-02-12T03:20:36.222Z,1.00
2019-02-12T03:21:36.369Z,1.20
2019-02-12T03:22:36.513Z,1.10
2019-02-12T03:23:36.660Z,1.10
2019-02-12T03:24:36.828Z,1.20
2019-02-12T03:25:36.948Z,1.00
2019-02-12T03:26:37.093Z,1.30
2019-02-12T03:27:37.236Z,1.80
2019-02-12T03:28:37.381Z,1.10
2019-02-12T03:29:37.525Z,0.90
2019-02-12T03:30:37.670Z,1.20
2019-02-12T03:31:37.892Z,1.00
2019-02-12T03:32:37.960Z,1.00
2019-02-12T03:33:38.108Z,1.10
2019-02-12T03:34:38.247Z,1.10
2019-02-12T03:35:38.391Z,1.00
2019-02-12T03:36:38.539Z,1.00
2019-02-12T03:37:38.681Z,1.00
2019-02-12T03:38:38.823Z,1.20
2019-02-12T03:39:38.970Z,0.90
2019-02-12T03:40:39.116Z,1.00
2019-02-12T03:41:39.260Z,1.20
2019-02-12T03:42:39.415Z,1.50
2019-02-12T03:43:39.567Z,1.20
2019-02-12T03:44:39.703Z,1.00
2019-02-12T03:45:39.847Z,1.10
2019-02-12T03:46:39.996Z,1.50
2019-02-12T03:47:40.139Z,1.40
2019-02-12T03:48:40.283Z,1.20
2019-02-12T03:49:40.433Z,3.00
2019-02-12T03:50:40.578Z,1.20
2019-02-12T03:51:40.722Z,1.20
2019-02-12T03:52:40.924Z,1.90
2019-02-12T03:53:41.013Z,1.20
2019-02-12T03:54:41.158Z,1.00
2019-02-12T03:55:41.310Z,0.90
2019-02-12T03:56:41.453Z,1.30
2019-02-12T03:57:41.591Z,1.40
2019-02-12T03:58:41.736Z,1.10
2019-02-12T03:59:41.882Z,1.10
2019-02-12T04:00:42.027Z,0.90
2019-02-12T04:01:42.177Z,0.90
2019-02-12T04:02:42.318Z,1.20
2019-02-12T04:03:42.461Z,1.40
2019-02-12T04:04:42.606Z,1.00
2019-02-12T04:05:42.762Z,1.00
2019-02-12T04:06:42.898Z,1.00
2019-02-12T04:07:43.045Z,1.30
2019-02-12T04:08:43.189Z,1.00
2019-02-12T04:09:43.336Z,1.10
2019-02-12T04:10:43.482Z,1.50
2019-02-12T04:11:43.626Z,1.00
2019-02-12T04:12:43.771Z,1.00
2019-02-12T04:13:43.915Z,1.00
2019-02-12T04:14:44.062Z,1.00
2019-02-12T04:15:44.205Z,1.00
2019-02-12T04:16:44.350Z,1.40
2019-02-12T04:17:44.497Z,1.10
2019-02-12T04:18:44.643Z,1.20
2019-02-12T04:19:44.788Z,1.30
2019-02-12T04:20:44.934Z,1.10
2019-02-12T04:21:45.078Z,1.10
2019-02-12T04:22:45.223Z,1.50
2019-02-12T04:23:45.371Z,1.10
2019-02-12T04:24:45.517Z,1.20
2019-02-12T04:25:45.657Z,1.10
2019-02-12T04:26:45.805Z,1.60
2019-02-12T04:27:45.950Z,5.80
2019-02-12T04:28:46.096Z,1.20
2019-02-12T04:29:46.238Z,1.00
2019-02-12T04:30:46.385Z,1.00
2019-02-12T04:31:46.527Z,2.60
2019-02-12T04:32:46.674Z,0.90
2019-02-12T04:33:46.817Z,1.20
2019-02-12T04:34:46.964Z,4.40
2019-02-12T04:35:47.114Z,1.10
2019-02-12T04:36:47.257Z,1.00
2019-02-12T04:37:47.396Z,1.00
2019-02-12T04:38:47.549Z,1.70
2019-02-12T04:39:47.692Z,1.20
2019-02-12T04:40:47.838Z,2.20
2019-02-12T04:41:47.982Z,1.00
2019-02-12T04:42:48.127Z,1.10
2019-02-12T04:43:48.274Z,1.10
2019-02-12T04:44:48.420Z,1.50
2019-02-12T04:45:48.567Z,1.20
2019-02-12T04:46:48.708Z,1.20
2019-02-12T04:47:48.852Z,1.00
2019-02-12T04:48:48.999Z,1.40
2019-02-12T04:49:49.140Z,1.20
2019-02-12T04:50:49.285Z,1.20
2019-02-12T04:51:49.430Z,1.10
2019-02-12T04:52:49.592Z,1.40
2019-02-12T04:53:49.719Z,1.30
2019-02-12T04:54:49.883Z,1.00
2019-02-12T04:55:50.033Z,2.20
2019-02-12T04:56:50.172Z,1.30
2019-02-12T04:57:50.320Z,1.00
2019-02-12T04:58:50.466Z,1.00
2019-02-12T04:59:50.610Z,3.10
2019-02-12T05:00:50.756Z,1.20
2019-02-12T05:01:50.901Z,2.80
2019-02-12T05:02:51.044Z,1.50
2019-02-12T05:03:51.187Z,1.00
2019-02-12T05:04:51.334Z,1.50
2019-02-12T05:05:51.484Z,1.00
2019-02-12T05:06:51.621Z,1.00
2019-02-12T05:07:51.765Z,1.20
2019-02-12T05:08:51.910Z,1.30
2019-02-12T05:09:52.056Z,1.40
2019-02-12T05:10:52.200Z,1.30
2019-02-12T05:11:52.344Z,1.40
2019-02-12T05:12:52.488Z,1.00
2019-02-12T05:13:52.637Z,1.00
2019-02-12T05:14:52.782Z,1.20
2019-02-12T05:15:52.928Z,1.30
2019-02-12T05:16:53.071Z,1.10
2019-02-12T05:17:53.219Z,1.00
2019-02-12T05:18:53.368Z,2.20
2019-02-12T05:19:53.509Z,1.00
2019-02-12T05:20:53.653Z,1.10
2019-02-12T05:21:53.797Z,1.60
2019-02-12T05:22:53.942Z,1.00
2019-02-12T05:23:54.088Z,2.90
2019-02-12T05:24:54.231Z,1.10
2019-02-12T05:25:54.377Z,1.10
2019-02-12T05:26:54.522Z,1.20
2019-02-12T05:27:54.666Z,1.40
2019-02-12T05:28:54.811Z,1.00
2019-02-12T05:29:54.955Z,1.00
2019-02-12T05:30:55.101Z,1.10
2019-02-12T05:31:55.249Z,3.10
2019-02-12T05:32:55.397Z,1.10
2019-02-12T05:33:55.533Z,1.60
2019-02-12T05:34:55.943Z,1.30
2019-02-12T05:35:55.820Z,1.70
2019-02-12T05:36:55.963Z,1.20
2019-02-12T05:37:56.107Z,1.50
2019-02-12T05:38:56.249Z,0.90
2019-02-12T05:39:56.393Z,1.30
2019-02-12T05:40:56.539Z,1.20
2019-02-12T05:41:56.685Z,1.00
2019-02-12T05:42:56.833Z,2.40
2019-02-12T05:43:56.977Z,1.20
2019-02-12T05:44:57.123Z,1.00
2019-02-12T05:45:57.267Z,1.30
2019-02-12T05:46:57.411Z,1.00
2019-02-12T05:47:57.557Z,2.60
2019-02-12T05:48:57.704Z,1.10
2019-02-12T05:49:57.849Z,1.90
2019-02-12T05:50:57.992Z,1.60
2019-02-12T05:51:58.162Z,1.10
2019-02-12T05:52:58.315Z,1.90
2019-02-12T05:53:58.430Z,2.80
2019-02-12T05:54:58.574Z,2.90
2019-02-12T05:55:58.719Z,1.70
2019-02-12T05:56:58.955Z,2.00
2019-02-12T05:57:59.012Z,3.40
2019-02-12T05:58:59.157Z,9.50
2019-02-12T05:59:59.301Z,5.50
2019-02-12T06:00:59.446Z,7.60
2019-02-12T06:01:59.589Z,4.80
2019-02-12T06:02:59.734Z,5.40
2019-02-12T06:03:59.880Z,4.00
2019-02-12T06:05:00.025Z,14.70
2019-02-12T06:06:00.171Z,6.70
2019-02-12T06:07:00.315Z,7.30
2019-02-12T06:08:00.458Z,9.90
2019-02-12T06:09:00.603Z,6.90
2019-02-12T06:10:00.744Z,5.00
2019-02-12T06:11:00.892Z,7.50
2019-02-12T06:12:01.034Z,6.60
2019-02-12T06:13:01.182Z,7.50
2019-02-12T06:14:01.322Z,7.60
2019-02-12T06:15:01.470Z,5.80
2019-02-12T06:16:01.612Z,7.30
2019-02-12T06:17:01.761Z,5.90
2019-02-12T06:18:01.904Z,8.60
2019-02-12T06:19:02.050Z,4.70
2019-02-12T06:20:02.196Z,6.20
2019-02-12T06:21:02.341Z,5.10
2019-02-12T06:22:02.488Z,6.00
2019-02-12T06:23:04.148Z,7.50
2019-02-12T06:24:02.776Z,4.60
2019-02-12T06:25:02.926Z,8.00
2019-02-12T06:26:03.212Z,7.00
2019-02-12T06:27:03.208Z,7.00
2019-02-12T06:28:03.353Z,6.70
2019-02-12T06:29:03.496Z,5.70
2019-02-12T06:30:03.642Z,10.30
2019-02-12T06:31:03.786Z,7.70
2019-02-12T06:32:03.931Z,6.40
2019-02-12T06:33:07.573Z,5.20
2019-02-12T06:34:04.219Z,3.40
2019-02-12T06:35:04.364Z,6.80
2019-02-12T06:36:04.509Z,8.10
2019-02-12T06:37:04.657Z,7.30
2019-02-12T06:38:04.802Z,4.30
2019-02-12T06:39:04.947Z,8.40
2019-02-12T06:40:05.094Z,3.30
2019-02-12T06:41:05.239Z,6.00
2019-02-12T06:42:05.404Z,8.50
2019-02-12T06:43:05.521Z,7.70
2019-02-12T06:44:05.671Z,5.30
2019-02-12T06:45:05.814Z,5.20
2019-02-12T06:46:05.971Z,8.80
2019-02-12T06:47:06.105Z,5.20
2019-02-12T06:48:06.248Z,3.30
2019-02-12T06:49:06.393Z,6.60
2019-02-12T06:50:06.537Z,7.20
2019-02-12T06:51:06.684Z,3.80
2019-02-12T06:52:06.831Z,7.20
2019-02-12T06:53:12.461Z,5.50
2019-02-12T06:54:07.115Z,9.60
2019-02-12T06:55:07.261Z,7.60
2019-02-12T06:56:07.404Z,5.30
2019-02-12T06:57:07.550Z,9.10
2019-02-12T06:58:07.695Z,5.10
2019-02-12T06:59:07.850Z,9.30
2019-02-12T07:00:07.986Z,4.00
2019-02-12T07:01:08.130Z,6.10
2019-02-12T07:02:08.274Z,3.80
2019-02-12T07:03:08.423Z,7.10
2019-02-12T07:04:08.566Z,6.20
2019-02-12T07:05:08.712Z,4.10
2019-02-12T07:06:08.855Z,7.80
2019-02-12T07:07:08.998Z,5.80
2019-02-12T07:08:09.159Z,5.90
2019-02-12T07:09:09.290Z,9.80
2019-02-12T07:10:09.434Z,8.40
2019-02-12T07:11:09.581Z,5.30
2019-02-12T07:12:09.729Z,4.90
2019-02-12T07:13:09.870Z,5.50
2019-02-12T07:14:10.017Z,4.70
2019-02-12T07:15:10.164Z,4.60
2019-02-12T07:16:10.305Z,11.60
2019-02-12T07:17:10.450Z,8.90
2019-02-12T07:18:10.594Z,4.20
2019-02-12T07:19:10.741Z,6.80
2019-02-12T07:20:10.883Z,6.00
2019-02-12T07:21:11.030Z,5.10
2019-02-12T07:22:11.174Z,4.60
2019-02-12T07:23:11.319Z,7.90
2019-02-12T07:24:11.500Z,9.20
2019-02-12T07:25:11.610Z,6.80
2019-02-12T07:26:11.761Z,5.80
2019-02-12T07:27:11.901Z,4.20
2019-02-12T07:28:12.053Z,6.60
2019-02-12T07:29:12.193Z,3.00
2019-02-12T07:30:12.337Z,5.80
2019-02-12T07:31:12.485Z,4.20
2019-02-12T07:32:12.629Z,7.10
2019-02-12T07:33:13.555Z,5.10
2019-02-12T07:34:12.923Z,6.10
2019-02-12T07:35:13.065Z,6.70
2019-02-12T07:36:13.208Z,2.80
2019-02-12T07:37:13.353Z,3.70
2019-02-12T07:38:13.498Z,5.90
2019-02-12T07:39:13.648Z,4.90
2019-02-12T07:40:13.794Z,6.20
2019-02-12T07:41:19.893Z,7.10
2019-02-12T07:42:14.081Z,4.80
2019-02-12T07:43:14.224Z,6.00
2019-02-12T07:44:14.375Z,3.80
2019-02-12T07:45:14.520Z,5.80
2019-02-12T07:46:14.664Z,6.50
2019-02-12T07:47:14.807Z,5.50
2019-02-12T07:48:14.955Z,4.60
2019-02-12T07:49:15.097Z,5.30
2019-02-12T07:50:15.243Z,5.60
2019-02-12T07:51:15.390Z,5.80
2019-02-12T07:52:15.536Z,5.40
2019-02-12T07:53:15.679Z,6.80
2019-02-12T07:54:15.826Z,5.30
2019-02-12T07:55:15.969Z,2.80
2019-02-12T07:56:16.116Z,5.20
2019-02-12T07:57:16.270Z,8.20
2019-02-12T07:58:16.406Z,4.20
2019-02-12T07:59:16.552Z,6.00
2019-02-12T08:00:16.697Z,5.50
2019-02-12T08:01:16.843Z,7.00
2019-02-12T08:02:16.989Z,4.40
2019-02-12T08:03:17.137Z,6.00
2019-02-12T08:04:17.280Z,3.50
2019-02-12T08:05:17.428Z,6.10
2019-02-12T08:06:17.569Z,7.90
2019-02-12T08:07:17.716Z,5.90
2019-02-12T08:08:17.863Z,8.50
2019-02-12T08:09:18.025Z,3.90
2019-02-12T08:10:18.152Z,4.20
2019-02-12T08:11:18.295Z,11.60
2019-02-12T08:12:18.441Z,7.00
2019-02-12T08:13:18.588Z,7.00
2019-02-12T08:14:18.731Z,6.00
2019-02-12T08:15:18.882Z,6.40
2019-02-12T08:16:19.027Z,6.50
2019-02-12T08:17:19.167Z,3.90
2019-02-12T08:18:19.312Z,8.50
2019-02-12T08:19:19.457Z,4.40
2019-02-12T08:20:19.604Z,5.40
2019-02-12T08:21:19.757Z,7.40
2019-02-12T08:22:19.891Z,5.80
2019-02-12T08:23:20.041Z,5.60
2019-02-12T08:24:20.186Z,8.70
2019-02-12T08:25:20.335Z,7.50
2019-02-12T08:26:20.478Z,5.50
2019-02-12T08:27:20.624Z,6.60
2019-02-12T08:28:20.768Z,5.80
2019-02-12T08:29:20.920Z,6.30
2019-02-12T08:30:21.061Z,6.20
2019-02-12T08:31:21.207Z,9.10
2019-02-12T08:32:21.354Z,5.00
2019-02-12T08:33:21.497Z,8.70
2019-02-12T08:34:21.642Z,5.50
2019-02-12T08:35:21.789Z,6.90
2019-02-12T08:36:21.933Z,6.30
2019-02-12T08:37:22.079Z,8.10
2019-02-12T08:38:22.229Z,7.30
2019-02-12T08:39:22.370Z,6.00
2019-02-12T08:40:22.514Z,6.10
2019-02-12T08:41:22.661Z,6.30
2019-02-12T08:42:22.813Z,4.10
2019-02-12T08:43:22.946Z,5.60
2019-02-12T08:44:23.092Z,5.60
2019-02-12T08:45:23.240Z,7.50
2019-02-12T08:46:23.385Z,6.30
2019-02-12T08:47:23.531Z,5.50
2019-02-12T08:48:23.675Z,9.70
2019-02-12T08:49:23.822Z,5.00
2019-02-12T08:50:23.967Z,3.40
2019-02-12T08:51:24.116Z,5.00
2019-02-12T08:52:24.259Z,8.10
2019-02-12T08:53:24.410Z,6.20
2019-02-12T08:54:24.554Z,5.60
2019-02-12T08:55:24.697Z,6.50
2019-02-12T08:56:24.842Z,6.10
2019-02-12T08:57:24.988Z,7.00
2019-02-12T08:58:25.133Z,4.80
2019-02-12T08:59:25.277Z,4.30
2019-02-12T09:00:25.423Z,5.30
2019-02-12T09:01:25.578Z,4.70
2019-02-12T09:02:25.715Z,5.20
2019-02-12T09:03:25.865Z,7.10
2019-02-12T09:04:26.011Z,5.20
2019-02-12T09:05:26.152Z,6.10
2019-02-12T09:06:26.299Z,7.00
2019-02-12T09:07:26.449Z,12.60
2019-02-12T09:08:26.590Z,5.50
2019-02-12T09:09:26.738Z,4.80
2019-02-12T09:10:26.883Z,7.90
2019-02-12T09:11:27.028Z,7.60
2019-02-12T09:12:27.176Z,5.60
2019-02-12T09:13:27.319Z,5.80
2019-02-12T09:14:27.469Z,9.60
2019-02-12T09:15:27.614Z,7.30
2019-02-12T09:16:27.761Z,5.60
2019-02-12T09:17:27.901Z,6.00
2019-02-12T09:18:28.048Z,5.90
2019-02-12T09:19:28.216Z,4.80
2019-02-12T09:20:28.390Z,5.90
2019-02-12T09:21:28.486Z,8.70
2019-02-12T09:22:28.634Z,9.60
2019-02-12T09:23:28.779Z,5.80
2019-02-12T09:24:28.924Z,5.70
2019-02-12T09:25:29.070Z,5.30
2019-02-12T09:26:29.216Z,5.10
2019-02-12T09:27:29.362Z,2.90
2019-02-12T09:28:29.507Z,9.00
2019-02-12T09:29:29.653Z,4.20
2019-02-12T09:30:29.800Z,6.50
2019-02-12T09:31:29.946Z,5.80
2019-02-12T09:32:30.092Z,5.40
2019-02-12T09:33:30.237Z,6.70
2019-02-12T09:34:30.382Z,6.70
2019-02-12T09:35:30.528Z,7.10
2019-02-12T09:36:30.672Z,3.80
2019-02-12T09:37:30.820Z,4.70
2019-02-12T09:38:30.969Z,5.20
2019-02-12T09:39:31.112Z,7.70
2019-02-12T09:40:31.256Z,5.60
2019-02-12T09:41:31.406Z,3.80
2019-02-12T09:42:31.556Z,4.70
2019-02-12T09:43:31.701Z,7.20
2019-02-12T09:44:31.844Z,6.10
2019-02-12T09:45:31.997Z,5.20
2019-02-12T09:46:32.136Z,6.00
2019-02-12T09:47:32.281Z,5.80
2019-02-12T09:48:32.425Z,6.30
2019-02-12T09:49:32.571Z,5.80
2019-02-12T09:50:32.715Z,7.40
2019-02-12T09:51:32.863Z,6.70
2019-02-12T09:52:33.009Z,5.20
2019-02-12T09:53:33.155Z,7.90
2019-02-12T09:54:33.300Z,7.90
2019-02-12T09:55:33.447Z,5.80
2019-02-12T09:56:33.594Z,4.50
2019-02-12T09:57:33.740Z,4.60
2019-02-12T09:58:33.887Z,7.00
2019-02-12T09:59:34.033Z,5.10
2019-02-12T10:00:34.180Z,4.50
2019-02-12T10:01:34.326Z,7.50
2019-02-12T10:02:34.470Z,4.60
2019-02-12T10:03:34.618Z,5.00
2019-02-12T10:04:34.765Z,4.40
2019-02-12T10:05:34.912Z,3.70
2019-02-12T10:06:35.056Z,6.70
2019-02-12T10:07:35.232Z,6.30
2019-02-12T10:08:35.346Z,4.50
2019-02-12T10:09:35.492Z,4.30
2019-02-12T10:10:35.642Z,4.80
2019-02-12T10:11:35.802Z,6.20
2019-02-12T10:12:35.933Z,5.40
2019-02-12T10:13:36.077Z,4.20
2019-02-12T10:14:36.225Z,4.70
2019-02-12T10:15:36.370Z,5.40
2019-02-12T10:16:36.518Z,5.00
2019-02-12T10:17:36.664Z,5.40
2019-02-12T10:18:36.806Z,5.40
2019-02-12T10:19:36.952Z,4.60
2019-02-12T10:20:37.105Z,4.40
2019-02-12T10:21:37.245Z,4.70
2019-02-12T10:22:37.387Z,3.90
2019-02-12T10:23:37.537Z,7.90
2019-02-12T10:24:37.680Z,4.90
2019-02-12T10:25:37.826Z,6.60
2019-02-12T10:26:37.972Z,8.10
2019-02-12T10:27:38.123Z,5.50
2019-02-12T10:28:38.267Z,6.40
2019-02-12T10:29:38.412Z,4.60
2019-02-12T10:30:38.559Z,5.60
2019-02-12T10:31:38.708Z,5.40
2019-02-12T10:32:38.849Z,4.90
2019-02-12T10:33:38.995Z,5.00
2019-02-12T10:34:39.144Z,9.00
2019-02-12T10:35:39.289Z,4.30
2019-02-12T10:36:39.437Z,7.60
2019-02-12T10:37:39.581Z,6.10
2019-02-12T10:38:39.726Z,6.30
2019-02-12T10:39:39.875Z,5.20
2019-02-12T10:40:40.023Z,6.50
2019-02-12T10:41:40.168Z,4.60
2019-02-12T10:42:40.318Z,6.90
2019-02-12T10:43:40.463Z,6.00
2019-02-12T10:44:40.611Z,5.50
2019-02-12T10:45:40.757Z,6.70
2019-02-12T10:46:40.905Z,3.90
2019-02-12T10:47:41.054Z,5.50
2019-02-12T10:48:41.201Z,6.00
2019-02-12T10:49:41.350Z,5.40
2019-02-12T10:50:41.494Z,8.80
2019-02-12T10:51:41.642Z,3.30
2019-02-12T10:52:41.792Z,4.90
2019-02-12T10:53:41.938Z,4.40
2019-02-12T10:54:42.086Z,6.80
2019-02-12T10:55:42.234Z,5.00
2019-02-12T10:56:42.379Z,6.80
2019-02-12T10:57:42.528Z,4.60
2019-02-12T10:58:42.687Z,8.30
2019-02-12T10:59:42.822Z,6.70
2019-02-12T11:00:42.970Z,6.80
2019-02-12T11:01:43.119Z,5.20
2019-02-12T11:02:43.265Z,6.50
2019-02-12T11:03:43.409Z,4.40
2019-02-12T11:04:43.555Z,4.60
2019-02-12T11:05:43.702Z,7.00
2019-02-12T11:06:43.851Z,6.70
2019-02-12T11:07:43.998Z,6.40
2019-02-12T11:08:44.147Z,6.00
2019-02-12T11:09:44.295Z,6.60
2019-02-12T11:10:45.184Z,2.80
2019-02-12T11:11:44.585Z,5.80
2019-02-12T11:12:44.734Z,7.10
2019-02-12T11:13:44.884Z,5.00
2019-02-12T11:14:45.023Z,5.30
2019-02-12T11:15:45.174Z,5.70
2019-02-12T11:16:45.322Z,7.90
2019-02-12T11:17:45.469Z,8.10
2019-02-12T11:18:45.616Z,9.70
2019-02-12T11:19:45.763Z,6.20
2019-02-12T11:20:45.911Z,8.20
2019-02-12T11:21:46.058Z,4.10
2019-02-12T11:22:46.207Z,8.90
2019-02-12T11:23:46.352Z,6.00
2019-02-12T11:24:46.498Z,4.10
2019-02-12T11:25:46.647Z,5.30
2019-02-12T11:26:46.795Z,5.40
2019-02-12T11:27:46.943Z,5.40
2019-02-12T11:28:47.093Z,4.70
2019-02-12T11:29:47.240Z,2.90
2019-02-12T11:30:47.389Z,6.50
2019-02-12T11:31:47.534Z,3.50
2019-02-12T11:32:47.684Z,5.90
2019-02-12T11:33:47.830Z,6.70
2019-02-12T11:34:47.977Z,7.20
2019-02-12T11:35:48.124Z,3.90
2019-02-12T11:36:48.274Z,5.30
2019-02-12T11:37:48.422Z,6.20
2019-02-12T11:38:48.571Z,6.00
2019-02-12T11:39:48.716Z,5.20
2019-02-12T11:40:48.861Z,7.50
2019-02-12T11:41:49.009Z,4.50
2019-02-12T11:42:49.164Z,4.00
2019-02-12T11:43:49.307Z,5.90
2019-02-12T11:44:49.454Z,5.40
2019-02-12T11:45:49.601Z,7.00
2019-02-12T11:46:49.750Z,4.00
2019-02-12T11:47:49.900Z,5.40
2019-02-12T11:48:50.046Z,6.70
2019-02-12T11:49:50.196Z,6.40
2019-02-12T11:50:50.342Z,5.50
2019-02-12T11:51:50.489Z,6.70
2019-02-12T11:52:50.636Z,3.30
2019-02-12T11:53:50.787Z,6.00
2019-02-12T11:54:50.931Z,4.90
2019-02-12T11:55:51.082Z,3.90
2019-02-12T11:56:51.226Z,6.70
2019-02-12T11:57:51.373Z,4.00
2019-02-12T11:58:51.521Z,6.30
2019-02-12T11:59:52.395Z,4.40
2019-02-12T12:00:51.819Z,5.30
2019-02-12T12:01:51.965Z,3.80
2019-02-12T12:02:52.113Z,4.50
2019-02-12T12:03:52.260Z,5.10
2019-02-12T12:04:52.406Z,5.50
2019-02-12T12:05:52.555Z,6.80
2019-02-12T12:06:52.702Z,6.00
2019-02-12T12:07:52.850Z,6.60
2019-02-12T12:08:52.998Z,3.30
2019-02-12T12:09:53.144Z,6.20
2019-02-12T12:10:53.292Z,9.90
2019-02-12T12:11:53.440Z,7.50
2019-02-12T12:12:53.585Z,5.20
2019-02-12T12:13:53.734Z,7.80
2019-02-12T12:14:53.879Z,6.70
2019-02-12T12:15:54.026Z,5.10
2019-02-12T12:16:54.174Z,6.30
2019-02-12T12:17:54.322Z,5.20
2019-02-12T12:18:54.467Z,6.70
2019-02-12T12:19:54.612Z,4.10
2019-02-12T12:20:54.765Z,3.20
2019-02-12T12:21:54.908Z,4.40
2019-02-12T12:22:55.053Z,6.20
2019-02-12T12:23:55.199Z,5.90
2019-02-12T12:24:55.346Z,6.00
2019-02-12T12:25:55.494Z,4.70
2019-02-12T12:26:55.641Z,5.50
2019-02-12T12:27:55.789Z,5.60
2019-02-12T12:28:55.933Z,6.50
2019-02-12T12:29:56.081Z,6.30
2019-02-12T12:30:56.228Z,3.30
2019-02-12T12:31:56.373Z,4.30
2019-02-12T12:32:56.616Z,4.10
2019-02-12T12:33:56.666Z,7.50
2019-02-12T12:34:59.104Z,5.60
2019-02-12T12:35:56.958Z,4.40
2019-02-12T12:36:57.105Z,4.10
2019-02-12T12:37:57.256Z,6.70
2019-02-12T12:38:57.408Z,4.10
2019-02-12T12:39:57.553Z,5.10
2019-02-12T12:40:57.699Z,3.40
2019-02-12T12:41:57.886Z,7.40
2019-02-12T12:42:57.997Z,5.30
2019-02-12T12:43:58.144Z,4.40
2019-02-12T12:44:58.295Z,4.80
2019-02-12T12:45:58.437Z,4.30
2019-02-12T12:46:58.590Z,6.60
2019-02-12T12:47:58.739Z,7.50
2019-02-12T12:48:59.274Z,6.60
2019-02-12T12:49:59.224Z,4.00
2019-02-12T12:50:59.190Z,6.40
2019-02-12T12:51:59.326Z,4.20
2019-02-12T12:52:59.477Z,5.30
2019-02-12T12:53:59.622Z,4.90
2019-02-12T12:55:00.250Z,5.70
2019-02-12T12:55:59.921Z,5.60
2019-02-12T12:57:00.069Z,4.60
2019-02-12T12:58:00.230Z,6.60
2019-02-12T12:59:00.374Z,8.20
2019-02-12T13:00:00.511Z,6.00
2019-02-12T13:01:00.666Z,5.20
2019-02-12T13:02:00.809Z,6.20
2019-02-12T13:03:00.967Z,4.50
2019-02-12T13:04:01.110Z,6.10
2019-02-12T13:05:02.695Z,4.50
2019-02-12T13:06:01.401Z,6.70
2019-02-12T13:07:01.562Z,3.70
2019-02-12T13:08:01.696Z,9.50
2019-02-12T13:09:01.843Z,5.40
2019-02-12T13:10:01.992Z,4.70
2019-02-12T13:11:02.138Z,5.10
2019-02-12T13:12:02.288Z,3.90
2019-02-12T13:13:02.442Z,6.00
2019-02-12T13:14:02.583Z,4.00
2019-02-12T13:15:02.733Z,9.00
2019-02-12T13:16:03.066Z,6.70
2019-02-12T13:17:03.033Z,4.40
2019-02-12T13:18:03.181Z,5.60
2019-02-12T13:19:03.332Z,6.70
2019-02-12T13:20:03.497Z,6.80